createdAt,value
2018-01-18T00:01:46.570Z,4.68
2018-01-18T00:04:13.982Z,4.35
2018-01-18T00:06:41.511Z,3.15
2018-01-18T00:09:08.963Z,5.32
2018-01-18T00:11:36.383Z,4.18
2018-01-18T00:14:03.877Z,7.15
2018-01-18T00:16:31.641Z,3.17
2018-01-18T00:18:59.054Z,4.75
2018-01-18T00:21:26.474Z,3.92
2018-01-18T00:23:53.903Z,4.57
2018-01-18T00:26:21.406Z,4.28
2018-01-18T00:28:48.824Z,4.12
2018-01-18T00:31:16.318Z,3.35
2018-01-18T00:33:43.844Z,5.12
2018-01-18T00:36:11.259Z,2.65
2018-01-18T00:38:38.743Z,1.70
2018-01-18T00:41:06.171Z,4.30
2018-01-18T00:43:33.584Z,2.40
2018-01-18T00:46:01.006Z,3.55
2018-01-18T00:48:28.471Z,3.03
2018-01-18T00:50:56.031Z,2.42
2018-01-18T00:53:23.484Z,2.25
2018-01-18T00:55:50.943Z,2.97
2018-01-18T00:58:18.371Z,3.37
2018-01-18T01:00:45.790Z,3.05
2018-01-18T01:03:13.218Z,2.90
2018-01-18T01:05:40.676Z,1.85
2018-01-18T01:08:08.138Z,6.05
2018-01-18T01:10:35.551Z,1.75
2018-01-18T01:13:02.971Z,2.20
2018-01-18T01:15:30.495Z,2.35
2018-01-18T01:17:58.047Z,3.97
2018-01-18T01:20:25.494Z,2.15
2018-01-18T01:22:52.923Z,2.15
2018-01-18T01:25:20.411Z,4.30
2018-01-18T01:27:47.867Z,2.22
2018-01-18T01:30:15.280Z,1.80
2018-01-18T01:32:43.706Z,2.40
2018-01-18T01:35:11.114Z,2.62
2018-01-18T01:37:38.627Z,2.78
2018-01-18T01:40:06.075Z,2.10
2018-01-18T01:42:33.526Z,4.10
2018-01-18T01:45:00.940Z,5.10
2018-01-18T01:47:28.450Z,3.92
2018-01-18T01:49:55.854Z,4.62
2018-01-18T01:52:23.266Z,8.50
2018-01-18T01:54:50.688Z,4.80
2018-01-18T01:57:18.201Z,4.45
2018-01-18T01:59:45.637Z,3.92
2018-01-18T02:02:13.050Z,2.87
2018-01-18T02:04:40.556Z,3.03
2018-01-18T02:07:08.026Z,2.92
2018-01-18T02:09:35.443Z,4.53
2018-01-18T02:12:02.914Z,6.68
2018-01-18T02:14:30.476Z,10.80
2018-01-18T02:16:57.888Z,4.80
2018-01-18T02:19:25.377Z,4.03
2018-01-18T02:21:52.835Z,7.95
2018-01-18T02:24:20.318Z,3.00
2018-01-18T02:26:47.712Z,6.68
2018-01-18T02:29:15.127Z,2.17
2018-01-18T02:31:42.656Z,5.70
2018-01-18T02:34:10.107Z,5.53
2018-01-18T02:36:37.514Z,3.15
2018-01-18T02:39:05.027Z,10.15
2018-01-18T02:41:32.434Z,3.92
2018-01-18T02:43:59.941Z,4.28
2018-01-18T02:46:27.396Z,3.08
2018-01-18T02:48:54.798Z,4.22
2018-01-18T02:51:22.214Z,5.28
2018-01-18T02:53:49.659Z,6.32
2018-01-18T02:56:17.168Z,6.72
2018-01-18T02:58:44.579Z,9.27
2018-01-18T03:01:12.132Z,7.55
2018-01-18T03:03:39.546Z,3.37
2018-01-18T03:06:06.970Z,9.25
2018-01-18T03:08:34.402Z,7.68
2018-01-18T03:11:01.935Z,6.05
2018-01-18T03:13:29.348Z,7.78
2018-01-18T03:15:56.769Z,12.05
2018-01-18T03:18:24.324Z,6.45
2018-01-18T03:20:51.777Z,6.05
2018-01-18T03:23:19.238Z,11.63
2018-01-18T03:25:46.687Z,4.65
2018-01-18T03:28:14.103Z,10.10
2018-01-18T03:30:41.526Z,5.28
2018-01-18T03:33:09.062Z,4.15
2018-01-18T03:35:36.487Z,8.25
2018-01-18T03:38:03.899Z,8.35
2018-01-18T03:40:31.434Z,12.65
2018-01-18T03:42:58.886Z,8.40
2018-01-18T03:45:26.339Z,4.95
2018-01-18T03:47:53.799Z,5.18
2018-01-18T03:50:21.211Z,9.27
2018-01-18T03:52:48.632Z,7.57
2018-01-18T03:55:16.047Z,5.68
2018-01-18T03:57:43.619Z,8.40
2018-01-18T04:00:11.086Z,6.57
2018-01-18T04:02:38.510Z,9.82
2018-01-18T04:05:05.918Z,6.15
2018-01-18T04:07:33.349Z,8.00
2018-01-18T04:10:00.777Z,6.28
2018-01-18T04:12:28.972Z,9.57
2018-01-18T04:14:56.386Z,5.10
2018-01-18T04:17:23.802Z,6.75
2018-01-18T04:19:51.346Z,12.00
2018-01-18T04:22:18.750Z,4.40
2018-01-18T04:24:46.259Z,9.85
2018-01-18T04:27:13.720Z,5.45
2018-01-18T04:29:41.147Z,7.82
2018-01-18T04:32:08.554Z,7.43
2018-01-18T04:34:35.986Z,6.65
2018-01-18T04:37:03.536Z,9.70
2018-01-18T04:39:30.991Z,4.28
2018-01-18T04:41:58.398Z,4.97
2018-01-18T04:44:25.824Z,4.72
2018-01-18T04:46:53.360Z,3.92
2018-01-18T04:49:20.786Z,5.07
2018-01-18T04:51:48.203Z,6.90
2018-01-18T04:54:15.735Z,5.78
2018-01-18T04:56:43.186Z,7.68
2018-01-18T04:59:10.612Z,6.95
2018-01-18T05:01:38.029Z,5.50
2018-01-18T05:04:05.555Z,4.20
2018-01-18T05:06:33.006Z,2.70
2018-01-18T05:09:00.414Z,10.60
2018-01-18T05:11:27.839Z,3.80
2018-01-18T05:13:55.387Z,5.85
2018-01-18T05:16:22.802Z,3.22
2018-01-18T05:18:50.216Z,4.80
2018-01-18T05:21:17.647Z,5.20
2018-01-18T05:23:45.106Z,7.45
2018-01-18T05:26:12.666Z,2.90
2018-01-18T05:28:40.078Z,6.32
2018-01-18T05:31:07.534Z,3.65
2018-01-18T05:33:34.935Z,3.22
2018-01-18T05:36:02.366Z,4.50
2018-01-18T05:38:29.938Z,3.53
2018-01-18T05:40:57.402Z,4.72
2018-01-18T05:43:24.818Z,2.55
2018-01-18T05:45:52.316Z,2.22
2018-01-18T05:48:19.698Z,2.40
2018-01-18T05:50:47.234Z,3.28
2018-01-18T05:53:14.659Z,3.40
2018-01-18T05:55:42.137Z,2.62
2018-01-18T05:58:09.590Z,4.40
2018-01-18T06:00:37.006Z,2.75
2018-01-18T06:03:04.427Z,2.67
2018-01-18T06:05:31.866Z,5.50
2018-01-18T06:07:59.336Z,3.58
2018-01-18T06:10:26.882Z,3.15
2018-01-18T06:12:54.312Z,2.62
2018-01-18T06:15:21.727Z,2.53
2018-01-18T06:17:49.246Z,3.70
2018-01-18T06:20:16.667Z,1.95
2018-01-18T06:22:44.084Z,1.20
2018-01-18T06:25:11.508Z,1.33
2018-01-18T06:27:39.072Z,1.75
2018-01-18T06:30:06.527Z,1.95
2018-01-18T06:32:33.934Z,5.00
2018-01-18T06:35:01.358Z,3.03
2018-01-18T06:37:28.825Z,1.33
2018-01-18T06:39:56.348Z,2.12
2018-01-18T06:42:23.753Z,1.15
2018-01-18T06:44:51.174Z,1.40
2018-01-18T06:47:18.723Z,2.55
2018-01-18T06:49:46.174Z,1.70
2018-01-18T06:52:13.578Z,1.87
2018-01-18T06:54:41.092Z,1.48
2018-01-18T06:57:08.502Z,1.60
2018-01-18T06:59:35.922Z,1.83
2018-01-18T07:02:03.454Z,1.90
2018-01-18T07:04:30.875Z,3.10
2018-01-18T07:06:58.290Z,2.75
2018-01-18T07:09:25.838Z,1.50
2018-01-18T07:11:53.284Z,2.87
2018-01-18T07:14:20.695Z,1.40
2018-01-18T07:16:49.129Z,1.87
2018-01-18T07:19:16.526Z,1.80
2018-01-18T07:21:44.033Z,1.30
2018-01-18T07:24:11.448Z,1.50
2018-01-18T07:26:38.938Z,1.50
2018-01-18T07:29:06.401Z,1.37
2018-01-18T07:31:33.815Z,2.25
2018-01-18T07:34:01.230Z,2.62
2018-01-18T07:36:28.654Z,1.40
2018-01-18T07:38:56.089Z,1.48
2018-01-18T07:41:24.291Z,1.70
2018-01-18T07:43:51.719Z,1.80
2018-01-18T07:46:19.131Z,3.67
2018-01-18T07:48:46.567Z,1.62
2018-01-18T07:51:14.119Z,1.50
2018-01-18T07:53:41.548Z,1.55
2018-01-18T07:56:09.033Z,2.00
2018-01-18T07:58:36.486Z,1.77
2018-01-18T08:01:03.899Z,1.70
2018-01-18T08:03:37.056Z,2.08
2018-01-18T08:06:04.594Z,3.65
2018-01-18T08:08:32.022Z,1.67
2018-01-18T08:10:59.598Z,1.98
2018-01-18T08:13:27.054Z,2.10
2018-01-18T08:15:54.534Z,1.40
2018-01-18T08:18:21.954Z,1.75
2018-01-18T08:20:49.371Z,1.15
2018-01-18T08:23:16.792Z,1.70
2018-01-18T08:25:44.340Z,1.30
2018-01-18T08:28:11.766Z,1.05
2018-01-18T08:30:39.255Z,1.20
2018-01-18T08:33:06.682Z,1.65
2018-01-18T08:35:34.100Z,1.30
2018-01-18T08:38:01.631Z,1.20
2018-01-18T08:40:29.050Z,2.85
2018-01-18T08:42:56.703Z,2.30
2018-01-18T08:45:25.123Z,1.50
2018-01-18T08:47:52.675Z,2.00
2018-01-18T08:50:20.136Z,1.48
2018-01-18T08:52:47.550Z,1.20
2018-01-18T08:55:14.978Z,1.20
2018-01-18T08:57:42.409Z,1.83
2018-01-18T09:00:09.929Z,1.30
2018-01-18T09:02:37.418Z,1.70
2018-01-18T09:05:04.874Z,1.53
2018-01-18T09:07:32.299Z,1.10
2018-01-18T09:09:59.731Z,1.80
2018-01-18T09:12:27.152Z,1.50
2018-01-18T09:14:54.570Z,2.90
2018-01-18T09:17:22.059Z,2.92
2018-01-18T09:19:49.482Z,1.77
2018-01-18T09:22:16.962Z,1.63
2018-01-18T09:24:44.396Z,1.47
2018-01-18T09:27:11.979Z,1.20
2018-01-18T09:29:39.391Z,1.20
2018-01-18T09:32:06.814Z,1.70
2018-01-18T09:34:34.250Z,1.27
2018-01-18T09:37:01.805Z,1.30
2018-01-18T09:39:29.259Z,2.17
2018-01-18T09:41:56.715Z,1.10
2018-01-18T09:44:24.138Z,1.37
2018-01-18T09:46:51.553Z,2.37
2018-01-18T09:49:18.986Z,1.60
2018-01-18T09:51:46.543Z,1.20
2018-01-18T09:54:13.950Z,1.40
2018-01-18T09:56:41.476Z,1.30
2018-01-18T09:59:08.921Z,1.60
2018-01-18T10:01:36.337Z,2.23
2018-01-18T10:04:03.814Z,1.93
2018-01-18T10:06:31.250Z,1.13
2018-01-18T10:08:58.732Z,1.67
2018-01-18T10:11:26.166Z,1.57
2018-01-18T10:13:53.574Z,2.63
2018-01-18T10:16:21.006Z,1.60
2018-01-18T10:18:48.563Z,1.70
2018-01-18T10:21:15.990Z,2.10
2018-01-18T10:23:43.475Z,1.90
2018-01-18T10:26:10.890Z,1.40
2018-01-18T10:28:38.388Z,1.37
2018-01-18T10:31:05.800Z,1.47
2018-01-18T10:33:33.231Z,1.50
2018-01-18T10:36:01.048Z,1.70
2018-01-18T10:38:28.190Z,1.40
2018-01-18T10:40:55.670Z,2.40
2018-01-18T10:43:23.105Z,1.70
2018-01-18T10:45:50.580Z,1.60
2018-01-18T10:48:18.023Z,1.70
2018-01-18T10:50:45.504Z,1.70
2018-01-18T10:53:12.922Z,2.07
2018-01-18T10:55:40.346Z,1.70
2018-01-18T10:58:07.863Z,1.60
2018-01-18T11:00:35.300Z,1.90
2018-01-18T11:03:03.482Z,1.87
2018-01-18T11:05:31.155Z,2.70
2018-01-18T11:07:58.611Z,1.50
2018-01-18T11:10:26.033Z,1.40
2018-01-18T11:12:53.443Z,1.50
2018-01-18T11:15:20.980Z,2.50
2018-01-18T11:17:48.391Z,2.70
2018-01-18T11:20:15.886Z,1.70
2018-01-18T11:22:43.338Z,1.80
2018-01-18T11:25:10.762Z,1.40
2018-01-18T11:27:38.186Z,1.67
2018-01-18T11:30:05.635Z,3.50
2018-01-18T11:32:33.074Z,1.63
2018-01-18T11:35:00.627Z,1.40
2018-01-18T11:37:28.085Z,2.20
2018-01-18T11:39:55.546Z,1.45
2018-01-18T11:42:23.014Z,2.23
2018-01-18T11:44:50.765Z,1.60
2018-01-18T11:47:18.195Z,1.60
2018-01-18T11:49:45.631Z,2.30
2018-01-18T11:52:13.050Z,2.33
2018-01-18T11:54:40.508Z,4.50
2018-01-18T11:57:07.957Z,1.40
2018-01-18T11:59:35.432Z,1.90
2018-01-18T12:02:02.872Z,4.17
2018-01-18T12:04:30.331Z,3.83
2018-01-18T12:06:57.785Z,4.63
2018-01-18T12:09:25.219Z,3.30
2018-01-18T12:11:52.782Z,4.53
2018-01-18T12:14:20.202Z,5.13
2018-01-18T12:16:47.615Z,3.27
2018-01-18T12:19:15.110Z,5.17
2018-01-18T12:21:42.603Z,5.13
2018-01-18T12:24:10.026Z,6.93
2018-01-18T12:26:37.446Z,11.03
2018-01-18T12:29:04.868Z,5.80
2018-01-18T12:31:32.350Z,5.43
2018-01-18T12:33:59.807Z,2.90
2018-01-18T12:36:27.336Z,5.07
2018-01-18T12:38:54.756Z,6.70
2018-01-18T12:41:22.188Z,6.73
2018-01-18T12:43:49.617Z,7.30
2018-01-18T12:46:17.372Z,3.63
2018-01-18T12:48:44.935Z,4.47
2018-01-18T12:51:12.362Z,3.63
2018-01-18T12:53:39.774Z,4.33
2018-01-18T12:56:07.208Z,8.40
2018-01-18T12:58:34.666Z,8.40
2018-01-18T13:01:02.155Z,7.00
2018-01-18T13:03:29.579Z,5.60
2018-01-18T13:05:57.012Z,9.80
2018-01-18T13:08:24.499Z,10.33
2018-01-18T13:10:51.914Z,7.60
2018-01-18T13:13:19.370Z,11.57
2018-01-18T13:15:46.943Z,6.53
2018-01-18T13:18:14.377Z,12.50
2018-01-18T13:20:41.862Z,5.43
2018-01-18T13:23:09.282Z,6.03
2018-01-18T13:25:36.780Z,4.77
2018-01-18T13:28:04.200Z,5.80
2018-01-18T13:30:31.691Z,8.03
2018-01-18T13:32:59.115Z,8.63
2018-01-18T13:35:26.603Z,8.13
2018-01-18T13:40:21.202Z,8.90
2018-01-18T13:42:48.610Z,7.30
2018-01-18T13:45:16.115Z,8.60
2018-01-18T13:47:43.518Z,6.90
2018-01-18T13:50:10.947Z,9.20
2018-01-18T13:52:38.386Z,6.80
2018-01-18T13:55:05.867Z,6.80
2018-01-18T13:57:33.417Z,6.17
2018-01-18T14:00:00.853Z,5.17
2018-01-18T14:02:28.263Z,8.27
2018-01-18T14:04:55.684Z,6.73
2018-01-18T14:07:23.214Z,7.13
2018-01-18T14:09:50.718Z,7.00
2018-01-18T14:12:18.080Z,9.03
2018-01-18T14:14:45.502Z,6.80
2018-01-18T14:17:13.048Z,5.40
2018-01-18T14:19:40.470Z,7.40
2018-01-18T14:22:07.891Z,6.35
2018-01-18T14:24:35.440Z,5.63
2018-01-18T14:27:02.851Z,6.20
2018-01-18T14:29:30.268Z,4.77
2018-01-18T14:31:57.822Z,4.50
2018-01-18T14:34:25.422Z,9.23
2018-01-18T14:36:53.000Z,8.60
2018-01-18T14:39:20.409Z,6.53
2018-01-18T14:41:47.921Z,8.47
2018-01-18T14:44:15.331Z,10.63
2018-01-18T14:46:42.753Z,5.53
2018-01-18T14:49:10.177Z,7.83
2018-01-18T14:51:37.955Z,6.17
2018-01-18T14:54:05.406Z,6.43
2018-01-18T14:56:32.939Z,5.30
2018-01-18T14:59:00.416Z,8.87
2018-01-18T15:01:27.842Z,9.03
2018-01-18T15:03:55.254Z,7.50
2018-01-18T15:06:22.714Z,7.87
2018-01-18T15:08:50.126Z,6.63
2018-01-18T15:11:17.707Z,6.40
2018-01-18T15:13:45.390Z,7.93
2018-01-18T15:16:12.917Z,8.37
2018-01-18T15:18:40.341Z,6.40
2018-01-18T15:21:07.758Z,6.37
2018-01-18T15:23:35.181Z,6.30
2018-01-18T15:26:03.149Z,7.57
2018-01-18T15:28:30.695Z,5.73
2018-01-18T15:30:58.270Z,7.03
2018-01-18T15:33:25.733Z,4.30
2018-01-18T15:35:53.156Z,9.40
2018-01-18T15:38:20.639Z,3.83
2018-01-18T15:40:48.058Z,7.17
2018-01-18T15:43:15.477Z,5.80
2018-01-18T15:45:43.010Z,5.13
2018-01-18T15:48:10.435Z,6.63
2018-01-18T15:50:37.853Z,6.93
2018-01-18T15:53:05.377Z,7.17
2018-01-18T15:55:32.815Z,7.90
2018-01-18T15:58:00.288Z,6.63
2018-01-18T16:00:27.715Z,7.53
2018-01-18T16:02:55.204Z,5.73
2018-01-18T16:05:22.657Z,6.80
2018-01-18T16:07:50.115Z,9.83
2018-01-18T16:10:17.534Z,14.20
2018-01-18T16:12:45.041Z,10.27
2018-01-18T16:15:12.546Z,15.20
2018-01-18T16:17:40.247Z,12.73
2018-01-18T16:20:07.679Z,14.50
2018-01-18T16:22:35.158Z,6.93
2018-01-18T16:25:02.614Z,12.23
2018-01-18T16:27:30.027Z,7.53
2018-01-18T16:29:58.454Z,9.60
2018-01-18T16:32:25.894Z,8.20
2018-01-18T16:34:53.318Z,8.43
2018-01-18T16:37:20.734Z,11.50
2018-01-18T16:39:48.387Z,8.87
2018-01-18T16:42:15.847Z,7.83
2018-01-18T16:44:43.488Z,10.40
2018-01-18T16:47:10.904Z,12.37
2018-01-18T16:49:38.343Z,8.37
2018-01-18T16:52:05.858Z,9.13
2018-01-18T16:54:33.274Z,7.73
2018-01-18T16:57:00.777Z,8.53
2018-01-18T16:59:28.197Z,6.50
2018-01-18T17:01:55.630Z,6.40
2018-01-18T17:04:23.048Z,8.33
2018-01-18T17:06:50.458Z,6.77
2018-01-18T17:09:18.839Z,3.93
2018-01-18T17:11:47.042Z,6.20
2018-01-18T17:14:14.498Z,6.00
2018-01-18T17:16:41.956Z,9.80
2018-01-18T17:19:09.374Z,10.20
2018-01-18T17:21:36.797Z,12.33
2018-01-18T17:24:05.161Z,9.65
2018-01-18T17:26:32.611Z,6.70
2018-01-18T17:29:00.070Z,7.73
2018-01-18T17:31:27.619Z,6.95
2018-01-18T17:33:55.031Z,9.93
2018-01-18T17:36:22.446Z,6.67
2018-01-18T17:38:50.018Z,7.50
2018-01-18T17:41:17.406Z,5.63
2018-01-18T17:43:44.896Z,5.73
2018-01-18T17:46:12.356Z,5.43
2018-01-18T17:48:39.782Z,4.20
2018-01-18T17:51:07.199Z,7.53
2018-01-18T17:53:34.726Z,5.37
2018-01-18T17:56:02.138Z,7.28
2018-01-18T17:58:29.643Z,5.20
2018-01-18T18:00:57.058Z,3.83
2018-01-18T18:03:24.478Z,8.85
2018-01-18T18:05:52.005Z,6.32
2018-01-18T18:08:19.423Z,5.27
2018-01-18T18:10:47.831Z,4.87
2018-01-18T18:13:15.262Z,8.37
2018-01-18T18:15:42.681Z,6.22
2018-01-18T18:18:10.114Z,7.25
2018-01-18T18:20:37.561Z,5.00
2018-01-18T18:23:04.987Z,4.65
2018-01-18T18:25:32.432Z,4.83
2018-01-18T18:28:00.622Z,4.63
2018-01-18T18:30:28.068Z,3.70
2018-01-18T18:32:55.521Z,6.07
2018-01-18T18:35:22.943Z,3.67
2018-01-18T18:37:51.386Z,4.03
2018-01-18T18:40:18.845Z,5.87
2018-01-18T18:42:46.300Z,5.33
2018-01-18T18:45:13.758Z,12.17
2018-01-18T18:47:41.174Z,8.03
2018-01-18T18:50:08.695Z,9.10
2018-01-18T18:52:36.112Z,6.45
2018-01-18T18:55:03.538Z,5.17
2018-01-18T18:57:31.035Z,3.20
2018-01-18T18:59:58.463Z,5.18
2018-01-18T19:02:25.951Z,6.80
2018-01-18T19:04:53.386Z,7.10
2018-01-18T19:07:20.865Z,5.60
2018-01-18T19:09:48.319Z,7.83
2018-01-18T19:12:15.776Z,8.43
2018-01-18T19:14:43.232Z,6.18
2018-01-18T19:17:10.842Z,12.10
2018-01-18T19:19:38.370Z,6.82
2018-01-18T19:22:05.822Z,9.02
2018-01-18T19:24:33.368Z,7.28
2018-01-18T19:27:00.805Z,9.75
2018-01-18T19:29:28.218Z,10.53
2018-01-18T19:31:55.646Z,8.80
2018-01-18T19:34:23.303Z,6.20
2018-01-18T19:36:50.731Z,5.97
2018-01-18T19:39:18.226Z,3.40
2018-01-18T19:41:45.656Z,6.05
2018-01-18T19:44:13.325Z,12.83
2018-01-18T19:46:40.746Z,6.28
2018-01-18T19:49:08.162Z,5.15
2018-01-18T19:51:35.695Z,7.50
2018-01-18T19:54:03.106Z,3.27
2018-01-18T19:56:30.615Z,6.40
2018-01-18T19:58:58.031Z,7.55
2018-01-18T20:01:25.451Z,5.70
2018-01-18T20:03:52.874Z,4.20
2018-01-18T20:06:20.299Z,9.02
2018-01-18T20:08:47.887Z,5.18
2018-01-18T20:11:15.311Z,6.10
2018-01-18T20:13:42.739Z,9.55
2018-01-18T20:16:10.255Z,9.68
2018-01-18T20:18:38.633Z,10.55
2018-01-18T20:21:06.093Z,8.20
2018-01-18T20:23:33.526Z,9.93
2018-01-18T20:26:00.939Z,8.40
2018-01-18T20:28:28.371Z,6.40
2018-01-18T20:30:55.807Z,6.53
2018-01-18T20:33:23.274Z,5.28
2018-01-18T20:35:50.689Z,6.37
2018-01-18T20:38:18.283Z,8.35
2018-01-18T20:40:45.740Z,7.00
2018-01-18T20:43:13.126Z,5.62
2018-01-18T20:45:40.563Z,11.02
2018-01-18T20:48:07.996Z,16.27
2018-01-18T20:50:35.430Z,13.95
2018-01-18T20:53:03.034Z,10.65
2018-01-18T20:55:30.651Z,7.53
2018-01-18T20:57:58.230Z,8.80
2018-01-18T21:00:25.661Z,11.65
2018-01-18T21:02:54.066Z,9.68
2018-01-18T21:05:21.497Z,7.53
2018-01-18T21:07:48.916Z,4.20
2018-01-18T21:10:16.439Z,6.00
2018-01-18T21:12:43.874Z,15.07
2018-01-18T21:15:11.351Z,6.70
2018-01-18T21:17:38.811Z,8.07
2018-01-18T21:20:06.238Z,9.20
2018-01-18T21:22:33.719Z,6.97
2018-01-18T21:25:01.175Z,9.20
2018-01-18T21:27:28.631Z,6.65
2018-01-18T21:29:56.043Z,8.02
2018-01-18T21:32:23.475Z,11.70
2018-01-18T21:34:50.994Z,7.97
2018-01-18T21:37:18.456Z,10.52
2018-01-18T21:39:45.916Z,6.47
2018-01-18T21:42:13.337Z,10.23
2018-01-18T21:44:40.750Z,11.95
2018-01-18T21:47:08.284Z,7.32
2018-01-18T21:49:35.698Z,8.95
2018-01-18T21:52:03.199Z,17.58
2018-01-18T21:54:30.613Z,13.23
2018-01-18T21:56:58.042Z,8.68
2018-01-18T21:59:25.563Z,10.38
2018-01-18T22:01:52.983Z,10.65
2018-01-18T22:04:20.403Z,19.35
2018-01-18T22:06:47.833Z,15.00
2018-01-18T22:09:15.242Z,7.12
2018-01-18T22:11:43.461Z,17.48
2018-01-18T22:14:10.879Z,10.60
2018-01-18T22:16:38.287Z,7.12
2018-01-18T22:19:05.715Z,10.25
2018-01-18T22:21:33.281Z,11.02
2018-01-18T22:24:00.742Z,17.05
2018-01-18T22:26:28.156Z,10.82
2018-01-18T22:28:55.651Z,14.25
2018-01-18T22:31:23.127Z,16.95
2018-01-18T22:33:50.554Z,14.77
2018-01-18T22:36:18.024Z,10.38
2018-01-18T22:38:45.454Z,19.50
2018-01-18T22:41:12.871Z,7.15
2018-01-18T22:43:41.218Z,14.73
2018-01-18T22:46:08.663Z,10.02
2018-01-18T22:48:36.138Z,13.10
2018-01-18T22:51:03.683Z,13.20
2018-01-18T22:53:31.110Z,14.45
2018-01-18T22:55:58.598Z,10.77
2018-01-18T22:58:26.025Z,9.68
2018-01-18T23:00:53.507Z,15.00
2018-01-18T23:03:21.871Z,10.88
2018-01-18T23:05:49.291Z,10.05
2018-01-18T23:08:16.726Z,11.35
2018-01-18T23:10:44.141Z,9.65
2018-01-18T23:13:11.550Z,13.45
2018-01-18T23:15:39.170Z,10.48
2018-01-18T23:18:06.640Z,23.70
2018-01-18T23:20:34.260Z,7.53
2018-01-18T23:23:01.740Z,9.88
2018-01-18T23:25:29.307Z,13.50
2018-01-18T23:27:56.751Z,12.48
2018-01-18T23:30:24.179Z,7.85
2018-01-18T23:32:51.603Z,13.57
2018-01-18T23:35:19.031Z,12.80
2018-01-18T23:37:46.478Z,8.75
2018-01-18T23:40:13.981Z,4.22
2018-01-18T23:42:41.442Z,5.78
2018-01-18T23:45:08.944Z,5.90
2018-01-18T23:47:36.359Z,5.32
2018-01-18T23:50:03.860Z,6.10
2018-01-18T23:52:31.277Z,2.20
2018-01-18T23:54:58.703Z,3.80
2018-01-18T23:57:26.128Z,3.20
2018-01-18T23:59:53.682Z,4.35
